createdAt,value
2019-03-13T00:01:46.313Z,22.13
2019-03-13T00:04:16.730Z,16.50
2019-03-13T00:06:48.083Z,18.67
2019-03-13T00:09:18.611Z,19.85
2019-03-13T00:11:49.139Z,18.32
2019-03-13T00:14:19.974Z,20.20
2019-03-13T00:16:50.704Z,23.00
2019-03-13T00:19:21.335Z,25.70
2019-03-13T00:21:52.000Z,24.75
2019-03-13T00:24:23.418Z,23.75
2019-03-13T00:26:55.084Z,21.55
2019-03-13T00:29:25.287Z,29.67
2019-03-13T00:31:59.410Z,37.40
2019-03-13T00:34:28.285Z,30.85
2019-03-13T00:36:59.222Z,33.65
2019-03-13T00:39:30.572Z,35.10
2019-03-13T00:42:00.999Z,35.23
2019-03-13T00:44:31.631Z,33.45
2019-03-13T00:47:02.771Z,35.03
2019-03-13T00:49:33.607Z,35.70
2019-03-13T00:52:05.360Z,33.95
2019-03-13T00:54:36.204Z,39.13
2019-03-13T00:57:07.036Z,35.65
2019-03-13T00:59:37.564Z,37.48
2019-03-13T01:02:10.016Z,40.00
2019-03-13T01:04:42.399Z,38.58
2019-03-13T01:07:14.261Z,47.38
2019-03-13T01:09:46.423Z,51.05
2019-03-13T01:12:16.747Z,44.50
2019-03-13T01:14:47.483Z,63.58
2019-03-13T01:17:18.213Z,65.30
2019-03-13T01:19:49.920Z,68.70
2019-03-13T01:22:22.033Z,93.50
2019-03-13T01:24:52.563Z,103.92
2019-03-13T01:27:24.889Z,110.10
2019-03-13T01:29:55.666Z,98.15
2019-03-13T01:32:37.770Z,91.63
2019-03-13T01:35:10.861Z,84.10
2019-03-13T01:37:43.630Z,80.07
2019-03-13T01:40:13.958Z,92.33
2019-03-13T01:42:44.698Z,76.22
2019-03-13T01:45:15.316Z,62.30
2019-03-13T01:47:47.077Z,53.50
2019-03-13T01:50:17.807Z,51.80
2019-03-13T01:52:48.546Z,40.63
2019-03-13T01:55:19.193Z,37.80
2019-03-13T01:57:50.104Z,37.90
2019-03-13T02:00:20.734Z,37.70
2019-03-13T02:02:51.481Z,35.10
2019-03-13T02:05:23.631Z,42.08
2019-03-13T02:07:58.256Z,36.70
2019-03-13T02:10:29.293Z,38.02
2019-03-13T02:12:59.924Z,42.78
2019-03-13T02:15:33.733Z,22.27
2019-03-13T02:18:04.768Z,35.58
2019-03-13T02:20:35.502Z,31.05
2019-03-13T02:23:06.232Z,31.90
2019-03-13T02:25:37.687Z,32.20
2019-03-13T02:28:08.004Z,37.83
2019-03-13T02:30:38.648Z,35.10
2019-03-13T02:33:09.268Z,32.63
2019-03-13T02:35:40.011Z,38.45
2019-03-13T02:38:10.634Z,43.08
2019-03-13T02:40:42.186Z,37.05
2019-03-13T02:43:13.323Z,33.83
2019-03-13T02:45:43.746Z,39.27
2019-03-13T02:48:14.623Z,55.05
2019-03-13T02:50:46.029Z,41.98
2019-03-13T02:53:16.663Z,45.60
2019-03-13T02:55:47.427Z,43.50
2019-03-13T02:58:20.444Z,47.60
2019-03-13T03:01:04.430Z,34.30
2019-03-13T03:03:36.591Z,40.55
2019-03-13T03:06:07.331Z,42.10
2019-03-13T03:08:39.591Z,37.93
2019-03-13T03:11:10.323Z,40.20
2019-03-13T03:13:41.057Z,38.88
2019-03-13T03:16:11.797Z,36.77
2019-03-13T03:18:42.621Z,40.80
2019-03-13T03:21:13.345Z,37.70
2019-03-13T03:23:45.465Z,36.00
2019-03-13T03:26:18.099Z,37.25
2019-03-13T03:28:49.026Z,33.25
2019-03-13T03:31:22.112Z,32.80
2019-03-13T03:34:01.150Z,34.50
2019-03-13T03:36:31.644Z,32.58
2019-03-13T03:39:04.813Z,30.20
2019-03-13T03:41:35.487Z,30.90
2019-03-13T03:44:06.839Z,34.43
2019-03-13T03:46:39.615Z,30.77
2019-03-13T03:49:11.166Z,31.07
2019-03-13T03:51:42.449Z,30.43
2019-03-13T03:54:15.090Z,30.10
2019-03-13T03:56:46.789Z,28.25
2019-03-13T03:59:17.169Z,30.62
2019-03-13T04:01:47.816Z,28.65
2019-03-13T04:04:18.638Z,30.08
2019-03-13T04:06:49.981Z,30.75
2019-03-13T04:09:20.817Z,28.23
2019-03-13T04:11:52.163Z,34.53
2019-03-13T04:14:22.785Z,32.23
2019-03-13T04:16:53.428Z,30.88
2019-03-13T04:19:24.868Z,31.50
2019-03-13T04:21:55.605Z,28.73
2019-03-13T04:24:27.049Z,30.12
2019-03-13T04:26:57.378Z,33.78
2019-03-13T04:29:28.001Z,35.60
2019-03-13T04:31:58.837Z,31.10
2019-03-13T04:34:30.752Z,30.77
2019-03-13T04:37:01.523Z,37.05
2019-03-13T04:39:32.467Z,33.98
2019-03-13T04:42:03.301Z,31.90
2019-03-13T04:44:34.247Z,34.73
2019-03-13T04:47:04.974Z,29.12
2019-03-13T04:49:35.707Z,32.20
2019-03-13T04:52:07.156Z,33.80
2019-03-13T04:54:38.405Z,29.70
2019-03-13T04:57:08.826Z,27.15
2019-03-13T04:59:39.655Z,25.35
2019-03-13T05:02:11.110Z,27.40
2019-03-13T05:04:42.930Z,26.20
2019-03-13T05:07:14.726Z,27.60
2019-03-13T05:09:47.224Z,24.57
2019-03-13T05:12:18.136Z,26.85
2019-03-13T05:14:48.769Z,24.47
2019-03-13T05:17:20.111Z,22.75
2019-03-13T05:19:50.437Z,31.73
2019-03-13T05:22:22.805Z,31.00
2019-03-13T05:24:54.255Z,25.45
2019-03-13T05:27:25.910Z,44.00
2019-03-13T05:29:58.117Z,24.70
2019-03-13T05:32:30.026Z,24.72
2019-03-13T05:35:00.440Z,24.43
2019-03-13T05:37:32.806Z,21.55
2019-03-13T05:40:05.607Z,21.30
2019-03-13T05:42:37.310Z,22.93
2019-03-13T05:45:08.662Z,23.18
2019-03-13T05:47:39.143Z,30.75
2019-03-13T05:50:10.982Z,26.73
2019-03-13T05:52:41.255Z,20.62
2019-03-13T05:55:11.962Z,24.85
2019-03-13T05:57:42.686Z,23.15
2019-03-13T06:00:15.614Z,20.50
2019-03-13T06:05:36.286Z,19.32
2019-03-13T06:08:07.425Z,23.62
2019-03-13T06:10:37.740Z,18.02
2019-03-13T06:13:09.604Z,21.40
2019-03-13T06:15:40.028Z,20.12
2019-03-13T06:21:04.854Z,27.27
2019-03-13T06:23:36.682Z,26.90
2019-03-13T06:26:07.142Z,30.70
2019-03-13T06:38:28.301Z,18.60
2019-03-13T06:41:08.462Z,23.45
2019-03-13T06:43:39.195Z,17.10
2019-03-13T06:46:09.818Z,19.65
2019-03-13T06:48:40.913Z,23.35
2019-03-13T06:51:29.104Z,17.15
2019-03-13T06:54:16.748Z,20.52
2019-03-13T06:57:05.404Z,28.07
2019-03-13T07:00:00.392Z,29.60
2019-03-13T07:02:49.545Z,19.10
2019-03-13T07:05:47.647Z,28.15
2019-03-13T07:08:55.336Z,23.83
2019-03-13T07:11:43.974Z,15.80
2019-03-13T07:14:33.656Z,22.93
2019-03-13T07:17:31.836Z,17.17
2019-03-13T07:20:21.851Z,25.25
2019-03-13T07:23:26.234Z,22.85
2019-03-13T07:26:04.240Z,15.78
2019-03-13T07:28:52.698Z,18.92
2019-03-13T07:31:28.132Z,16.07
2019-03-13T07:34:03.568Z,15.38
2019-03-13T07:36:36.905Z,19.55
2019-03-13T07:39:21.753Z,17.25
2019-03-13T07:42:11.519Z,16.85
2019-03-13T07:44:46.953Z,27.07
2019-03-13T07:47:36.315Z,14.93
2019-03-13T07:50:28.142Z,13.05
2019-03-13T07:53:03.173Z,11.30
2019-03-13T07:55:35.241Z,18.52
2019-03-13T08:00:56.562Z,32.67
2019-03-13T08:03:45.837Z,15.60
2019-03-13T08:06:33.975Z,20.90
2019-03-13T08:09:08.192Z,15.10
2019-03-13T08:11:44.247Z,10.68
2019-03-13T08:14:24.293Z,8.90
2019-03-13T08:17:03.117Z,12.70
2019-03-13T08:19:40.709Z,5.83
2019-03-13T08:22:29.266Z,10.75
2019-03-13T08:25:18.224Z,14.00
2019-03-13T08:27:54.074Z,8.28
2019-03-13T08:30:35.355Z,10.68
2019-03-13T08:33:25.644Z,15.70
2019-03-13T08:36:16.344Z,11.10
2019-03-13T08:38:54.725Z,8.85
2019-03-13T08:41:36.044Z,22.27
2019-03-13T08:44:17.822Z,17.05
2019-03-13T08:47:06.889Z,16.95
2019-03-13T08:49:41.823Z,10.95
2019-03-13T08:52:14.294Z,9.88
2019-03-13T08:54:46.465Z,17.32
2019-03-13T08:57:21.800Z,10.23
2019-03-13T09:00:09.131Z,9.43
2019-03-13T09:02:59.930Z,12.23
2019-03-13T09:05:44.066Z,7.50
2019-03-13T09:08:34.055Z,11.70
2019-03-13T09:11:12.991Z,9.63
2019-03-13T09:13:52.019Z,9.85
2019-03-13T09:16:30.086Z,10.08
2019-03-13T09:19:02.278Z,11.78
2019-03-13T09:21:37.309Z,7.65
2019-03-13T09:24:18.769Z,14.33
2019-03-13T09:26:53.635Z,15.35
2019-03-13T09:29:39.063Z,20.77
2019-03-13T09:32:17.212Z,7.58
2019-03-13T09:34:49.276Z,12.95
2019-03-13T09:37:21.839Z,5.60
2019-03-13T09:39:56.675Z,18.62
2019-03-13T09:42:41.126Z,11.15
2019-03-13T09:45:19.347Z,10.75
2019-03-13T09:47:51.503Z,11.50
2019-03-13T09:50:27.567Z,7.10
2019-03-13T09:53:06.794Z,15.20
2019-03-13T09:55:55.132Z,11.25
2019-03-13T09:58:46.053Z,8.33
2019-03-13T10:01:34.592Z,20.77
2019-03-13T10:04:06.769Z,8.95
2019-03-13T10:06:44.969Z,10.72
2019-03-13T10:09:23.173Z,16.20
2019-03-13T10:12:11.415Z,9.03
2019-03-13T10:14:50.752Z,6.83
2019-03-13T10:17:23.028Z,11.45
2019-03-13T10:19:56.614Z,9.45
2019-03-13T10:22:47.425Z,14.93
2019-03-13T10:25:29.627Z,13.60
2019-03-13T10:30:35.491Z,15.00
2019-03-13T10:33:07.773Z,10.13
2019-03-13T10:35:57.745Z,10.90
2019-03-13T10:38:48.036Z,9.90
2019-03-13T10:41:36.889Z,7.55
2019-03-13T10:44:28.814Z,8.15
2019-03-13T10:47:00.989Z,7.12
2019-03-13T10:49:36.008Z,8.43
2019-03-13T10:52:20.267Z,7.72
2019-03-13T10:55:08.211Z,12.98
2019-03-13T10:57:40.375Z,8.43
2019-03-13T11:00:16.360Z,13.10
2019-03-13T11:02:50.984Z,9.90
2019-03-13T11:05:23.986Z,7.60
2019-03-13T11:07:56.401Z,8.75
2019-03-13T11:10:31.454Z,14.43
2019-03-13T11:13:15.383Z,19.42
2019-03-13T11:16:05.772Z,29.90
2019-03-13T11:18:51.670Z,12.70
2019-03-13T11:21:27.527Z,11.35
2019-03-13T11:24:03.479Z,11.25
2019-03-13T11:26:41.580Z,11.78
2019-03-13T11:29:22.354Z,16.32
2019-03-13T11:32:06.445Z,17.85
2019-03-13T11:38:14.573Z,9.75
2019-03-13T11:41:33.224Z,13.70
2019-03-13T11:44:32.119Z,12.03
2019-03-13T11:47:17.556Z,15.23
2019-03-13T11:50:06.565Z,13.00
2019-03-13T11:52:40.007Z,18.70
2019-03-13T11:55:20.726Z,12.03
2019-03-13T11:58:06.059Z,8.80
2019-03-13T12:00:54.707Z,10.15
2019-03-13T12:03:33.728Z,15.72
2019-03-13T12:06:09.166Z,8.98
2019-03-13T12:08:47.485Z,10.65
2019-03-13T12:11:25.978Z,11.90
2019-03-13T12:14:01.436Z,16.35
2019-03-13T12:16:34.729Z,21.17
2019-03-13T12:19:09.263Z,16.60
2019-03-13T12:21:44.483Z,12.18
2019-03-13T12:24:34.567Z,10.78
2019-03-13T12:27:23.534Z,9.93
2019-03-13T12:30:07.572Z,10.32
2019-03-13T12:35:29.730Z,12.15
2019-03-13T12:38:05.594Z,7.85
2019-03-13T12:40:54.332Z,12.13
2019-03-13T12:43:27.114Z,11.85
2019-03-13T12:46:16.378Z,9.15
2019-03-13T12:48:51.516Z,11.75
2019-03-13T12:51:23.689Z,23.55
2019-03-13T12:53:59.737Z,11.95
2019-03-13T12:56:37.847Z,23.12
2019-03-13T12:59:11.357Z,15.50
2019-03-13T13:02:00.842Z,12.95
2019-03-13T13:04:37.182Z,11.65
2019-03-13T13:07:10.834Z,12.60
2019-03-13T13:09:58.616Z,11.88
2019-03-13T13:12:31.905Z,22.82
2019-03-13T13:15:07.438Z,23.90
2019-03-13T13:17:56.167Z,51.02
2019-03-13T13:20:29.602Z,12.25
2019-03-13T13:23:01.263Z,12.98
2019-03-13T13:25:31.686Z,10.93
2019-03-13T13:28:02.418Z,6.62
2019-03-13T13:30:34.797Z,10.90
2019-03-13T13:33:07.041Z,12.33
2019-03-13T13:35:39.855Z,21.27
2019-03-13T13:38:10.985Z,12.55
2019-03-13T13:40:41.654Z,14.25
2019-03-13T13:43:13.713Z,19.10
2019-03-13T13:45:47.109Z,7.35
2019-03-13T13:48:17.499Z,14.43
2019-03-13T13:50:49.275Z,10.70
2019-03-13T13:53:20.490Z,19.00
2019-03-13T13:55:51.026Z,15.45
2019-03-13T13:58:22.052Z,8.58
2019-03-13T14:00:53.092Z,17.40
2019-03-13T14:03:23.320Z,16.07
2019-03-13T14:05:57.128Z,13.58
2019-03-13T14:08:29.201Z,11.50
2019-03-13T14:11:00.049Z,27.15
2019-03-13T14:13:32.399Z,22.32
2019-03-13T14:16:03.128Z,19.73
2019-03-13T14:18:34.475Z,21.50
2019-03-13T14:21:05.516Z,18.73
2019-03-13T14:23:36.354Z,37.05
2019-03-13T14:26:07.082Z,17.60
2019-03-13T14:28:38.115Z,8.15
2019-03-13T14:31:08.439Z,18.10
2019-03-13T14:33:39.176Z,9.85
2019-03-13T14:36:11.542Z,10.75
2019-03-13T14:38:42.279Z,24.75
2019-03-13T14:41:13.025Z,14.45
2019-03-13T14:43:43.642Z,23.40
2019-03-13T14:46:13.965Z,14.25
2019-03-13T14:48:44.489Z,14.73
2019-03-13T14:51:15.838Z,15.45
2019-03-13T14:53:46.466Z,15.60
2019-03-13T14:56:16.999Z,20.72
2019-03-13T14:58:48.146Z,15.88
2019-03-13T15:01:19.383Z,14.68
2019-03-13T15:03:49.911Z,18.57
2019-03-13T15:06:20.549Z,19.52
2019-03-13T15:08:51.065Z,19.05
2019-03-13T15:11:21.509Z,22.40
2019-03-13T15:13:52.537Z,42.55
2019-03-13T15:16:24.306Z,37.08
2019-03-13T15:18:55.228Z,32.85
2019-03-13T15:21:26.996Z,42.80
2019-03-13T15:23:58.626Z,41.73
2019-03-13T15:26:28.966Z,19.27
2019-03-13T15:29:00.613Z,18.82
2019-03-13T15:31:31.677Z,18.75
2019-03-13T15:34:02.592Z,32.23
2019-03-13T15:36:33.233Z,19.12
2019-03-13T15:39:06.595Z,23.75
2019-03-13T15:41:38.616Z,26.17
2019-03-13T15:44:09.729Z,25.85
2019-03-13T15:46:40.766Z,31.82
2019-03-13T15:49:16.700Z,41.98
2019-03-13T15:51:48.729Z,30.23
2019-03-13T15:54:19.625Z,35.88
2019-03-13T15:56:50.969Z,28.00
2019-03-13T15:59:21.492Z,21.77
2019-03-13T16:01:55.549Z,17.73
2019-03-13T16:04:25.931Z,24.00
2019-03-13T16:06:56.661Z,23.45
2019-03-13T16:09:27.715Z,31.20
2019-03-13T16:11:58.543Z,29.50
2019-03-13T16:14:29.262Z,36.17
2019-03-13T16:17:00.001Z,21.77
2019-03-13T16:19:32.778Z,44.70
2019-03-13T16:22:04.664Z,39.58
2019-03-13T16:24:36.902Z,39.85
2019-03-13T16:27:07.952Z,49.00
2019-03-13T16:29:38.676Z,44.90
2019-03-13T16:32:12.590Z,71.77
2019-03-13T16:34:43.627Z,25.12
2019-03-13T16:37:14.871Z,31.95
2019-03-13T16:39:45.294Z,35.00
2019-03-13T16:42:17.251Z,25.75
2019-03-13T16:44:47.586Z,37.83
2019-03-13T16:47:19.645Z,34.45
2019-03-13T16:49:50.063Z,39.92
2019-03-13T16:52:20.804Z,60.10
2019-03-13T16:54:52.247Z,40.35
2019-03-13T16:57:23.020Z,56.70
2019-03-13T17:00:00.571Z,50.60
2019-03-13T17:02:26.081Z,43.55
2019-03-13T17:04:56.415Z,46.00
2019-03-13T17:07:28.584Z,53.58
2019-03-13T17:09:59.110Z,62.62
2019-03-13T17:12:30.951Z,56.83
2019-03-13T17:15:01.524Z,50.15
2019-03-13T17:17:34.606Z,46.53
2019-03-13T17:20:08.488Z,50.30
2019-03-13T17:22:39.313Z,72.90
2019-03-13T17:25:13.210Z,64.10
2019-03-13T17:27:43.541Z,52.48
2019-03-13T17:30:19.506Z,53.25
2019-03-13T17:32:52.384Z,53.23
2019-03-13T17:35:25.065Z,48.63
2019-03-13T17:37:57.039Z,57.20
2019-03-13T17:40:32.124Z,50.90
2019-03-13T17:43:02.408Z,59.50
2019-03-13T17:45:33.951Z,56.95
2019-03-13T17:48:06.090Z,61.35
2019-03-13T17:50:38.161Z,61.80
2019-03-13T17:53:08.894Z,59.15
2019-03-13T17:55:40.138Z,68.67
2019-03-13T17:58:10.871Z,59.63
2019-03-13T18:00:52.889Z,65.65
2019-03-13T18:03:24.773Z,61.25
2019-03-13T18:05:55.258Z,62.53
2019-03-13T18:08:26.289Z,52.78
2019-03-13T18:10:59.454Z,61.50
2019-03-13T18:13:29.809Z,63.55
2019-03-13T18:16:00.433Z,55.88
2019-03-13T18:18:31.061Z,65.47
2019-03-13T18:21:01.665Z,63.98
2019-03-13T18:23:32.630Z,70.28
2019-03-13T18:26:03.379Z,62.08
2019-03-13T18:28:34.101Z,65.05
2019-03-13T18:31:04.730Z,71.42
2019-03-13T18:33:44.594Z,61.73
2019-03-13T18:36:15.718Z,52.50
2019-03-13T18:38:46.554Z,56.35
2019-03-13T18:41:18.918Z,64.60
2019-03-13T18:43:49.343Z,58.15
2019-03-13T18:46:21.007Z,57.60
2019-03-13T18:48:51.322Z,64.40
2019-03-13T18:51:22.270Z,66.77
2019-03-13T18:53:53.502Z,54.98
2019-03-13T18:56:26.599Z,60.87
2019-03-13T18:58:59.894Z,58.52
2019-03-13T19:01:30.931Z,64.67
2019-03-13T19:04:02.426Z,81.12
2019-03-13T19:06:34.437Z,66.50
2019-03-13T19:09:06.008Z,68.62
2019-03-13T19:11:36.852Z,77.67
2019-03-13T19:14:07.359Z,64.22
2019-03-13T19:16:37.689Z,70.65
2019-03-13T19:19:09.635Z,67.35
2019-03-13T19:21:40.579Z,89.55
2019-03-13T19:24:12.433Z,71.72
2019-03-13T19:26:43.092Z,85.65
2019-03-13T19:29:14.106Z,92.30
2019-03-13T19:31:44.841Z,115.17
2019-03-13T19:34:15.569Z,95.35
2019-03-13T19:36:47.229Z,74.25
2019-03-13T19:39:18.360Z,74.62
2019-03-13T19:41:48.991Z,93.65
2019-03-13T19:44:19.731Z,103.85
2019-03-13T19:46:51.380Z,112.28
2019-03-13T19:49:23.037Z,91.87
2019-03-13T19:51:54.077Z,83.42
2019-03-13T19:54:29.620Z,87.95
2019-03-13T19:59:30.464Z,92.85
2019-03-13T20:02:02.220Z,98.27
2019-03-13T20:04:33.062Z,102.40
2019-03-13T20:07:04.830Z,102.42
2019-03-13T20:09:35.239Z,89.30
2019-03-13T20:12:05.980Z,112.40
2019-03-13T20:14:36.808Z,123.90
2019-03-13T20:17:07.544Z,101.27
2019-03-13T20:19:38.793Z,95.20
2019-03-13T20:22:11.674Z,100.30
2019-03-13T20:24:42.509Z,99.92
2019-03-13T20:27:14.465Z,102.75
2019-03-13T20:29:45.201Z,105.95
2019-03-13T20:32:17.256Z,90.57
2019-03-13T20:34:48.837Z,96.67
2019-03-13T20:37:20.884Z,93.65
2019-03-13T20:39:53.046Z,111.20
2019-03-13T20:42:23.975Z,112.05
2019-03-13T20:44:56.050Z,99.30
2019-03-13T20:47:26.466Z,106.30
2019-03-13T20:49:57.511Z,102.50
2019-03-13T20:52:28.954Z,112.70
2019-03-13T20:54:59.175Z,113.50
2019-03-13T20:57:29.916Z,115.03
2019-03-13T21:00:00.545Z,126.67
2019-03-13T21:02:31.177Z,118.50
2019-03-13T21:05:02.718Z,121.10
2019-03-13T21:07:33.350Z,119.28
2019-03-13T21:10:05.243Z,114.32
2019-03-13T21:12:36.665Z,112.95
2019-03-13T21:15:13.335Z,149.12
2019-03-13T21:17:44.886Z,126.25
2019-03-13T21:20:16.743Z,123.40
2019-03-13T21:22:46.966Z,119.00
2019-03-13T21:25:19.844Z,137.37
2019-03-13T21:27:50.424Z,95.35
2019-03-13T21:30:27.257Z,117.13
2019-03-13T21:32:58.199Z,111.90
2019-03-13T21:35:30.355Z,112.25
2019-03-13T21:38:00.811Z,109.90
2019-03-13T21:40:32.477Z,116.95
2019-03-13T21:43:03.556Z,115.45
2019-03-13T21:45:41.211Z,120.08
2019-03-13T21:48:07.195Z,113.80
2019-03-13T21:50:38.738Z,115.25
2019-03-13T21:53:08.967Z,112.85
2019-03-13T21:55:39.697Z,104.58
2019-03-13T21:58:10.534Z,106.92
2019-03-13T22:00:42.795Z,110.30
2019-03-13T22:03:13.332Z,107.07
2019-03-13T22:05:44.268Z,95.38
2019-03-13T22:08:15.608Z,88.45
2019-03-13T22:10:47.062Z,106.63
2019-03-13T22:13:18.128Z,92.25
2019-03-13T22:15:49.961Z,96.72
2019-03-13T22:18:20.663Z,95.42
2019-03-13T22:20:51.316Z,94.17
2019-03-13T22:23:38.537Z,92.72
2019-03-13T22:26:27.802Z,98.25
2019-03-13T22:28:58.443Z,104.35
2019-03-13T22:31:29.170Z,101.20
2019-03-13T22:33:59.487Z,102.35
2019-03-13T22:36:31.143Z,107.35
2019-03-13T22:39:02.571Z,101.85
2019-03-13T22:41:36.572Z,109.67
2019-03-13T22:44:05.897Z,101.05
2019-03-13T22:46:36.129Z,123.60
2019-03-13T22:49:06.856Z,100.95
2019-03-13T22:51:37.897Z,104.60
2019-03-13T22:54:10.475Z,101.10
2019-03-13T22:56:41.305Z,109.50
2019-03-13T22:59:13.468Z,102.62
2019-03-13T23:01:46.656Z,108.42
2019-03-13T23:04:17.499Z,108.03
2019-03-13T23:06:48.022Z,103.35
2019-03-13T23:09:19.170Z,104.35
2019-03-13T23:11:51.224Z,115.77
2019-03-13T23:14:21.554Z,113.37
2019-03-13T23:16:52.280Z,116.17
2019-03-13T23:19:23.528Z,109.67
2019-03-13T23:21:53.854Z,98.35
2019-03-13T23:24:24.177Z,105.78
2019-03-13T23:26:55.254Z,107.43
2019-03-13T23:29:25.948Z,104.47
2019-03-13T23:31:56.364Z,88.62
2019-03-13T23:34:27.030Z,99.15
2019-03-13T23:36:58.448Z,95.97
2019-03-13T23:39:28.878Z,94.72
2019-03-13T23:41:59.608Z,93.07
2019-03-13T23:44:30.240Z,88.95
2019-03-13T23:47:00.966Z,94.75
2019-03-13T23:49:33.855Z,67.85
2019-03-13T23:52:04.688Z,97.82
2019-03-13T23:54:36.467Z,92.90
2019-03-13T23:57:06.952Z,108.65
2019-03-13T23:59:37.497Z,123.58
